Time;durP1;ratioP1;P1;durP2;ratioP2;P2;SDS_P1;SDS_P2;PMS_P1;PMS_P2;Temp;Humidity;BMP_temperature;BMP_pressure;BME280_temperature;BME280_humidity;BME280_pressure;Samples;Min_cycle;Max_cycle;Signal;HPM_P1;HPM_P2
2022/04/27 00:01:09;;;;;;;9.63;4.63;;;8.10;99.90;;;;;;12504903;28;20107;-38
2022/04/27 00:07:12;;;;;;;10.65;4.93;;;8.10;99.90;;;;;;12503333;28;20041;-37
2022/04/27 00:13:16;;;;;;;9.00;4.95;;;8.10;99.90;;;;;;12502504;28;20045;-38
2022/04/27 00:19:18;;;;;;;12.17;5.07;;;8.00;99.90;;;;;;12499247;28;20049;-38
2022/04/27 00:25:19;;;;;;;10.27;4.57;;;7.90;99.90;;;;;;12497508;28;20041;-37
2022/04/27 00:31:21;;;;;;;12.75;4.88;;;7.90;99.90;;;;;;12498388;28;20528;-38
2022/04/27 00:37:23;;;;;;;11.95;4.70;;;7.90;99.90;;;;;;12502394;28;20045;-39
2022/04/27 00:43:40;;;;;;;13.65;5.00;;;7.70;99.90;;;;;;12493552;28;20088;-37
2022/04/27 00:49:47;;;;;;;11.43;4.90;;;7.70;99.90;;;;;;12493345;28;20049;-38
2022/04/27 00:55:49;;;;;;;8.90;4.63;;;7.70;99.90;;;;;;12498395;28;20056;-37
2022/04/27 01:01:51;;;;;;;11.50;4.90;;;7.70;99.90;;;;;;12498550;28;20057;-37
2022/04/27 01:07:57;;;;;;;9.68;4.57;;;7.70;99.90;;;;;;12497587;28;20133;-38
2022/04/27 01:14:00;;;;;;;9.77;4.75;;;7.50;99.90;;;;;;12497687;28;20777;-37
2022/04/27 01:20:02;;;;;;;7.22;5.13;;;7.40;99.90;;;;;;12495968;28;20049;-38
2022/04/27 01:26:08;;;;;;;10.60;4.97;;;7.40;99.90;;;;;;12499792;28;20061;-38
2022/04/27 01:32:10;;;;;;;13.25;5.68;;;7.30;99.90;;;;;;12495322;28;20057;-39
2022/04/27 01:38:14;;;;;;;9.48;4.95;;;7.20;99.90;;;;;;12499108;28;20507;-37
2022/04/27 01:44:17;;;;;;;10.95;5.35;;;7.30;99.90;;;;;;12494780;28;20432;-37
2022/04/27 01:50:19;;;;;;;10.05;5.07;;;7.10;99.90;;;;;;12495576;28;20137;-38
2022/04/27 01:56:21;;;;;;;10.95;4.75;;;7.20;99.90;;;;;;12504901;28;20085;-38
2022/04/27 02:02:23;;;;;;;11.02;5.10;;;7.30;99.90;;;;;;12500000;28;20045;-37
2022/04/27 02:08:26;;;;;;;13.05;5.25;;;7.10;99.90;;;;;;12497085;28;20056;-38
2022/04/27 02:14:28;;;;;;;10.13;4.70;;;7.30;99.90;;;;;;12493695;28;20088;-37
2022/04/27 02:20:30;;;;;;;9.90;5.40;;;7.40;99.90;;;;;;12498298;28;20140;-38
2022/04/27 02:26:32;;;;;;;7.22;4.70;;;7.00;99.90;;;;;;12490627;28;20098;-37
2022/04/27 02:32:34;;;;;;;9.02;4.82;;;7.30;99.90;;;;;;12490660;28;20528;-38
2022/04/27 02:38:36;;;;;;;11.38;5.32;;;7.10;99.90;;;;;;12498245;28;20057;-37
2022/04/27 02:44:39;;;;;;;11.23;5.78;;;7.00;99.90;;;;;;12497700;28;20136;-38
2022/04/27 02:57:02;;;;;;;11.90;5.63;;;6.90;99.90;;;;;;12492516;28;20045;-38
2022/04/27 03:03:07;;;;;;;8.15;5.22;;;6.90;99.90;;;;;;12495312;28;20517;-37
2022/04/27 03:09:09;;;;;;;10.40;6.05;;;6.80;99.90;;;;;;12494591;28;20045;-37
2022/04/27 03:15:11;;;;;;;9.52;6.57;;;6.70;99.90;;;;;;12494050;28;20057;-37
2022/04/27 03:21:13;;;;;;;10.82;6.28;;;6.50;99.90;;;;;;12493181;28;20085;-38
2022/04/27 03:27:15;;;;;;;14.43;6.55;;;6.50;99.90;;;;;;12504469;28;20511;-38
2022/04/27 03:33:18;;;;;;;12.55;7.30;;;6.40;99.90;;;;;;12499898;28;20094;-38
2022/04/27 03:39:20;;;;;;;11.85;6.93;;;6.40;99.90;;;;;;12505691;28;20060;-39
2022/04/27 03:45:42;;;;;;;12.30;5.47;;;6.20;99.90;;;;;;12507118;28;20079;-37
2022/04/27 03:51:45;;;;;;;10.98;6.75;;;6.30;99.90;;;;;;12505772;28;20049;-39
2022/04/27 03:57:49;;;;;;;12.98;6.07;;;6.20;99.90;;;;;;12503655;28;20413;-38
2022/04/27 04:03:51;;;;;;;14.13;6.40;;;6.40;99.90;;;;;;12504478;28;20084;-36
2022/04/27 04:09:53;;;;;;;11.85;6.40;;;6.40;99.90;;;;;;12499281;28;20054;-38
2022/04/27 04:15:55;;;;;;;10.95;5.68;;;6.50;99.90;;;;;;12497957;28;20092;-37
2022/04/27 04:21:59;;;;;;;10.73;6.30;;;6.50;99.90;;;;;;12500988;28;20049;-37
2022/04/27 04:34:24;;;;;;;14.52;6.68;;;6.60;99.90;;;;;;12495409;28;20141;-38
2022/04/27 04:40:27;;;;;;;12.90;6.47;;;6.70;99.90;;;;;;12497749;28;20469;-37
2022/04/27 04:46:29;;;;;;;12.38;6.97;;;6.80;99.90;;;;;;12509035;28;20501;-38
2022/04/27 04:52:32;;;;;;;10.38;6.35;;;6.90;99.90;;;;;;12502382;28;20049;-39
2022/04/27 04:58:34;;;;;;;8.85;5.95;;;7.00;99.90;;;;;;12499889;28;20087;-37
2022/04/27 05:04:35;;;;;;;13.55;7.20;;;7.00;99.90;;;;;;12497399;28;20049;-39
2022/04/27 05:10:39;;;;;;;10.02;7.40;;;7.00;99.90;;;;;;12503457;28;20137;-38
2022/04/27 05:16:41;;;;;;;10.50;7.25;;;7.20;99.90;;;;;;12505832;28;20058;-37
2022/04/27 05:22:44;;;;;;;10.63;7.20;;;7.20;99.90;;;;;;12497764;28;20091;-38
2022/04/27 05:35:07;;;;;;;13.40;7.38;;;7.20;99.90;;;;;;12502026;28;20091;-38
2022/04/27 05:41:09;;;;;;;12.77;8.15;;;7.20;99.90;;;;;;12503653;28;20075;-38
2022/04/27 05:47:12;;;;;;;12.20;8.02;;;7.40;99.90;;;;;;12499495;28;20126;-37
2022/04/27 05:53:23;;;;;;;12.70;8.15;;;7.30;99.90;;;;;;12503418;28;20045;-38
2022/04/27 05:59:33;;;;;;;16.58;8.85;;;7.30;99.90;;;;;;12505743;28;20140;-39
2022/04/27 06:05:39;;;;;;;13.13;8.70;;;7.40;99.90;;;;;;12508586;28;20056;-38
2022/04/27 06:11:44;;;;;;;16.17;9.45;;;7.30;99.90;;;;;;12506581;28;20489;-39
2022/04/27 06:17:49;;;;;;;16.58;8.88;;;7.60;99.90;;;;;;12508697;28;20045;-37
2022/04/27 06:23:51;;;;;;;19.55;8.63;;;7.80;99.90;;;;;;12501860;28;20607;-37
2022/04/27 06:29:54;;;;;;;13.60;8.82;;;7.80;99.90;;;;;;12497853;28;20041;-38
2022/04/27 06:35:58;;;;;;;13.73;7.82;;;8.00;99.90;;;;;;12504695;28;20128;-39
2022/04/27 06:42:00;;;;;;;13.23;7.90;;;8.40;99.90;;;;;;12498522;28;20057;-38
2022/04/27 06:48:03;;;;;;;14.25;7.35;;;8.40;99.90;;;;;;12499760;28;20599;-37
2022/04/27 06:54:07;;;;;;;13.32;8.32;;;8.40;99.90;;;;;;12504940;28;20049;-39
2022/04/27 07:00:12;;;;;;;12.85;7.80;;;8.40;99.90;;;;;;12499934;28;20049;-38
2022/04/27 07:06:14;;;;;;;11.60;6.30;;;8.70;99.90;;;;;;12502372;28;20053;-38
2022/04/27 07:12:16;;;;;;;14.30;7.18;;;8.50;99.90;;;;;;12499341;28;20115;-37
2022/04/27 07:18:18;;;;;;;12.45;7.65;;;8.90;99.90;;;;;;12503009;28;20041;-38
2022/04/27 07:24:20;;;;;;;10.98;7.55;;;9.10;99.90;;;;;;12497763;28;20570;-39
2022/04/27 07:30:23;;;;;;;14.50;7.57;;;9.10;99.90;;;;;;12497983;28;20132;-38
2022/04/27 07:36:25;;;;;;;12.90;7.45;;;9.30;99.90;;;;;;12496986;28;20176;-39
2022/04/27 07:42:31;;;;;;;12.77;7.47;;;9.70;99.90;;;;;;12496421;28;21035;-39
2022/04/27 07:48:33;;;;;;;9.93;5.68;;;9.50;99.90;;;;;;12490741;28;20049;-39
2022/04/27 07:54:35;;;;;;;11.35;6.10;;;9.80;99.90;;;;;;12495194;28;20056;-37
2022/04/27 08:00:38;;;;;;;15.82;5.28;;;10.40;99.90;;;;;;12504290;28;20563;-39
2022/04/27 08:06:40;;;;;;;12.40;6.10;;;10.40;99.90;;;;;;12496140;28;20125;-39
2022/04/27 08:12:47;;;;;;;12.30;6.00;;;9.90;99.90;;;;;;12500023;28;20073;-37
2022/04/27 08:18:50;;;;;;;15.50;7.20;;;10.40;99.90;;;;;;12495535;28;20050;-38
2022/04/27 08:24:51;;;;;;;13.10;5.22;;;10.40;99.90;;;;;;12495968;28;20559;-39
2022/04/27 08:30:54;;;;;;;8.00;4.90;;;10.60;99.90;;;;;;12499299;28;20057;-39
2022/04/27 08:36:56;;;;;;;9.85;5.13;;;11.10;99.90;;;;;;12502148;28;20057;-39
2022/04/27 08:43:01;;;;;;;12.45;5.43;;;10.70;99.90;;;;;;12497448;28;20128;-38
2022/04/27 08:49:07;;;;;;;12.73;5.68;;;10.90;99.90;;;;;;12500613;28;20356;-38
2022/04/27 08:55:10;;;;;;;15.88;6.50;;;11.40;99.90;;;;;;12501355;28;20041;-37
2022/04/27 09:01:12;;;;;;;8.57;5.25;;;11.70;99.90;;;;;;12495618;28;20053;-40
2022/04/27 09:07:17;;;;;;;10.43;5.50;;;11.80;99.90;;;;;;12495158;28;20049;-39
2022/04/27 09:13:30;;;;;;;12.43;5.38;;;11.50;99.90;;;;;;12501297;28;20057;-38
2022/04/27 09:26:28;;;;;;;11.55;5.55;;;11.90;99.90;;;;;;12494781;28;20049;-38
2022/04/27 09:32:30;;;;;;;8.98;5.10;;;12.00;99.90;;;;;;12502244;28;20477;-39
2022/04/27 09:38:40;;;;;;;12.65;6.15;;;12.40;99.90;;;;;;12498072;28;20068;-39
2022/04/27 09:44:42;;;;;;;10.10;5.15;;;12.10;99.90;;;;;;12492507;28;20088;-40
2022/04/27 09:50:58;;;;;;;9.93;4.70;;;12.40;99.90;;;;;;12495004;28;20136;-39
2022/04/27 09:57:03;;;;;;;7.93;4.43;;;12.60;99.90;;;;;;12494387;28;20093;-38
2022/04/27 10:03:06;;;;;;;9.55;5.38;;;12.70;99.90;;;;;;12508760;28;20045;-37
2022/04/27 10:09:09;;;;;;;11.75;5.07;;;13.00;99.90;;;;;;12499926;28;20051;-40
2022/04/27 10:15:32;;;;;;;10.93;5.43;;;13.00;99.90;;;;;;12496701;28;20076;-39
2022/04/27 10:21:57;;;;;;;9.53;5.83;;;13.40;99.90;;;;;;12499972;28;20080;-39
2022/04/27 10:28:18;;;;;;;12.23;6.30;;;13.20;99.90;;;;;;12495158;28;20064;-38
2022/04/27 10:34:22;;;;;;;13.50;5.45;;;13.10;99.90;;;;;;12509473;28;20049;-38
2022/04/27 10:40:30;;;;;;;11.35;5.75;;;13.80;99.90;;;;;;12504479;28;20045;-40
2022/04/27 10:46:38;;;;;;;12.05;6.38;;;13.80;99.90;;;;;;12502322;28;20140;-39
2022/04/27 10:52:51;;;;;;;9.85;5.75;;;13.20;99.90;;;;;;12510568;28;20049;-38
2022/04/27 10:58:54;;;;;;;11.32;6.43;;;13.80;99.90;;;;;;12506514;28;20057;-38
2022/04/27 11:04:57;;;;;;;10.10;5.65;;;14.30;99.90;;;;;;12499422;28;20084;-40
2022/04/27 11:11:08;;;;;;;11.23;5.88;;;14.30;99.90;;;;;;12507501;28;20053;-39
2022/04/27 11:17:10;;;;;;;9.35;6.32;;;14.50;99.90;;;;;;12502275;28;20044;-37
2022/04/27 11:23:22;;;;;;;8.68;6.22;;;14.60;99.90;;;;;;12501209;28;20049;-38
2022/04/27 11:29:25;;;;;;;10.38;6.10;;;14.90;99.90;;;;;;12498903;28;20429;-40
2022/04/27 11:35:39;;;;;;;10.93;6.95;;;15.40;99.90;;;;;;12504723;28;20132;-39
2022/04/27 11:41:41;;;;;;;11.13;6.10;;;14.10;99.90;;;;;;12503301;28;20399;-39
2022/04/27 11:47:43;;;;;;;7.13;5.10;;;14.50;99.90;;;;;;12504643;28;20094;-39
2022/04/27 11:53:49;;;;;;;11.93;6.55;;;15.60;99.90;;;;;;12497646;28;20049;-38
2022/04/27 11:59:52;;;;;;;10.73;6.20;;;15.50;99.90;;;;;;12502070;28;20549;-38
2022/04/27 12:05:54;;;;;;;9.88;6.03;;;15.20;99.90;;;;;;12496261;28;20064;-39
2022/04/27 12:12:09;;;;;;;9.68;6.32;;;15.40;99.90;;;;;;12490291;28;20045;-37
2022/04/27 12:18:16;;;;;;;11.98;6.93;;;14.90;99.90;;;;;;12494890;28;20072;-39
2022/04/27 12:24:20;;;;;;;8.68;6.55;;;15.40;99.90;;;;;;12498156;28;20405;-39
2022/04/27 12:30:22;;;;;;;9.20;6.05;;;15.30;99.90;;;;;;12494181;28;20052;-39
2022/04/27 12:43:00;;;;;;;9.52;6.40;;;15.80;99.90;;;;;;12490638;28;20053;-38
2022/04/27 12:49:05;;;;;;;10.57;7.40;;;16.00;99.90;;;;;;12492464;28;20050;-38
2022/04/27 12:55:12;;;;;;;9.57;7.22;;;15.80;99.90;;;;;;12494407;28;20045;-40
2022/04/27 13:01:29;;;;;;;10.15;6.43;;;16.20;99.90;;;;;;12490498;28;20401;-39
2022/04/27 13:07:32;;;;;;;10.77;7.82;;;16.00;99.90;;;;;;12496117;28;20399;-39
2022/04/27 13:13:34;;;;;;;11.73;7.75;;;15.10;99.90;;;;;;12488045;28;20056;-39
2022/04/27 13:19:36;;;;;;;9.88;7.20;;;15.70;99.90;;;;;;12493067;28;20140;-38
2022/04/27 13:25:38;;;;;;;10.32;6.70;;;16.30;99.90;;;;;;12492195;28;20060;-39
2022/04/27 13:31:40;;;;;;;12.35;6.47;;;17.10;99.90;;;;;;12488788;28;20056;-38
2022/04/27 13:37:42;;;;;;;9.20;6.55;;;16.80;99.90;;;;;;12491142;28;20444;-39
2022/04/27 13:43:44;;;;;;;10.30;6.68;;;16.10;99.90;;;;;;12489762;28;20053;-39
2022/04/27 13:49:46;;;;;;;11.02;7.00;;;16.00;99.90;;;;;;12487598;28;20132;-39
2022/04/27 13:56:08;;;;;;;10.38;7.28;;;16.40;99.90;;;;;;12490338;28;20106;-38
2022/04/27 14:02:13;;;;;;;10.37;7.10;;;15.40;99.90;;;;;;12491241;28;20128;-39
2022/04/27 14:08:15;;;;;;;12.90;7.65;;;15.60;99.90;;;;;;12495744;28;20049;-38
2022/04/27 14:14:17;;;;;;;12.38;7.43;;;15.90;99.90;;;;;;12487145;28;20555;-40
2022/04/27 14:20:19;;;;;;;11.00;6.78;;;16.60;99.90;;;;;;12490736;28;20145;-40
2022/04/27 14:26:21;;;;;;;11.15;7.30;;;16.50;99.90;;;;;;12491581;28;20060;-37
2022/04/27 14:32:23;;;;;;;10.95;6.70;;;16.00;99.90;;;;;;12487458;28;20527;-40
2022/04/27 14:38:25;;;;;;;10.23;7.15;;;15.40;99.90;;;;;;12490870;28;20521;-37
2022/04/27 14:44:27;;;;;;;10.02;7.88;;;15.30;99.90;;;;;;12490968;28;20095;-40
2022/04/27 14:50:29;;;;;;;16.15;7.72;;;15.30;99.90;;;;;;12489992;28;20053;-40
2022/04/27 14:56:34;;;;;;;14.27;8.20;;;15.50;99.90;;;;;;12487871;28;20057;-38
2022/04/27 15:02:37;;;;;;;9.43;7.28;;;15.30;99.90;;;;;;12486165;28;20037;-39
2022/04/27 15:08:39;;;;;;;11.48;7.47;;;14.90;99.90;;;;;;12497905;28;20052;-37
2022/04/27 15:14:41;;;;;;;10.98;7.80;;;14.80;99.90;;;;;;12490199;28;20140;-38
2022/04/27 15:27:05;;;;;;;11.85;6.90;;;15.40;99.90;;;;;;12504479;28;20120;-39
2022/04/27 15:33:07;;;;;;;13.70;7.13;;;15.30;99.90;;;;;;12501083;28;20052;-40
2022/04/27 15:39:09;;;;;;;8.85;6.60;;;14.80;99.90;;;;;;12496006;28;20081;-39
2022/04/27 15:45:11;;;;;;;8.70;5.68;;;14.70;99.90;;;;;;12497933;28;20224;-37
2022/04/27 15:51:13;;;;;;;11.30;6.82;;;15.20;99.90;;;;;;12496499;28;20168;-39
2022/04/27 15:57:18;;;;;;;;;;;15.20;99.90;;;;;;12494871;28;20045;-37
2022/04/27 16:03:20;;;;;;;10.32;6.57;;;14.90;99.90;;;;;;12497082;28;19931;-39
2022/04/27 16:09:22;;;;;;;9.93;5.82;;;15.30;99.90;;;;;;12493918;28;20098;-37
2022/04/27 16:15:24;;;;;;;13.15;6.38;;;15.90;99.90;;;;;;12494561;28;20049;-39
2022/04/27 16:27:47;;;;;;;8.07;5.70;;;16.20;99.90;;;;;;12495871;28;20057;-40
2022/04/27 16:33:50;;;;;;;10.02;5.65;;;16.30;99.90;;;;;;12493233;28;20041;-37
2022/04/27 16:39:52;;;;;;;8.93;5.80;;;16.30;99.90;;;;;;12496580;28;20140;-37
2022/04/27 16:45:54;;;;;;;10.30;5.72;;;15.80;99.90;;;;;;12493873;28;20594;-39
2022/04/27 16:51:56;;;;;;;9.95;6.03;;;15.80;99.90;;;;;;12490951;28;20101;-38
2022/04/27 16:57:58;;;;;;;7.95;4.95;;;15.90;99.90;;;;;;12494600;28;20521;-39
2022/04/27 17:04:01;;;;;;;8.80;5.25;;;15.70;99.90;;;;;;12490467;28;20398;-37
2022/04/27 17:10:03;;;;;;;12.55;5.45;;;15.20;99.90;;;;;;12491044;28;20050;-37
2022/04/27 17:16:10;;;;;;;6.40;4.85;;;15.10;99.90;;;;;;12488075;28;20041;-39
2022/04/27 17:22:12;;;;;;;8.35;4.78;;;14.90;99.90;;;;;;12485548;28;20505;-38
2022/04/27 17:28:14;;;;;;;9.32;4.72;;;15.10;99.90;;;;;;12489264;28;20565;-38
2022/04/27 17:34:16;;;;;;;7.00;4.80;;;15.00;99.90;;;;;;12497142;28;20049;-39
2022/04/27 17:40:18;;;;;;;8.60;4.30;;;15.10;99.90;;;;;;12492401;28;20044;-39
2022/04/27 17:46:20;;;;;;;10.63;4.85;;;15.20;99.90;;;;;;12490760;28;20055;-38
2022/04/27 17:52:24;;;;;;;7.35;4.25;;;15.10;99.90;;;;;;12496089;28;20136;-40
2022/04/27 17:58:26;;;;;;;10.85;4.38;;;14.60;99.90;;;;;;12490656;28;20053;-40
2022/04/27 18:04:29;;;;;;;8.10;4.00;;;14.20;99.90;;;;;;12495004;28;20053;-39
2022/04/27 18:10:32;;;;;;;9.65;4.38;;;14.10;99.90;;;;;;12504519;28;20077;-39
2022/04/27 18:16:34;;;;;;;8.03;4.10;;;13.70;99.90;;;;;;12500853;28;20065;-39
2022/04/27 18:22:36;;;;;;;11.00;4.47;;;13.40;99.90;;;;;;12498983;28;20053;-38
2022/04/27 18:28:45;;;;;;;7.05;4.93;;;13.10;99.90;;;;;;12501195;28;20374;-39
2022/04/27 18:34:47;;;;;;;9.00;5.13;;;13.10;99.90;;;;;;12498621;28;20143;-37
2022/04/27 18:40:50;;;;;;;9.38;5.78;;;12.90;99.90;;;;;;12500411;28;20072;-37
2022/04/27 18:53:19;;;;;;;13.20;5.63;;;12.60;99.90;;;;;;12502638;28;20048;-39
2022/04/27 18:59:22;;;;;;;12.23;5.50;;;12.50;99.90;;;;;;12509090;28;20045;-39
2022/04/27 19:05:25;;;;;;;10.30;5.70;;;12.30;99.90;;;;;;12504085;28;20111;-37
2022/04/27 19:11:27;;;;;;;9.90;5.38;;;12.20;99.90;;;;;;12500715;28;20045;-39
2022/04/27 19:17:30;;;;;;;14.80;6.00;;;12.00;99.90;;;;;;12505227;28;20052;-39
2022/04/27 19:23:33;;;;;;;10.55;6.70;;;11.60;99.90;;;;;;12503175;28;20053;-38
2022/04/27 19:29:35;;;;;;;8.52;5.72;;;11.70;99.90;;;;;;12503450;28;20053;-39
2022/04/27 19:35:37;;;;;;;10.80;5.90;;;11.60;99.90;;;;;;12501029;28;20037;-37
2022/04/27 19:41:40;;;;;;;10.73;6.38;;;11.70;99.90;;;;;;12504571;28;20132;-38
2022/04/27 19:47:42;;;;;;;10.50;5.90;;;11.60;99.90;;;;;;12503246;28;20052;-38
2022/04/27 19:53:44;;;;;;;17.58;6.05;;;11.50;99.90;;;;;;12498802;28;20049;-37
2022/04/27 19:59:50;;;;;;;13.57;6.85;;;11.30;99.90;;;;;;12504476;28;20497;-37
2022/04/27 20:05:53;;;;;;;11.68;6.03;;;11.20;99.90;;;;;;12502568;28;20081;-38
2022/04/27 20:11:55;;;;;;;13.02;5.93;;;11.10;99.90;;;;;;12501557;28;20159;-37
2022/04/27 20:17:58;;;;;;;11.75;6.53;;;10.90;99.90;;;;;;12500995;28;20092;-37
2022/04/27 20:24:01;;;;;;;8.05;6.40;;;10.80;99.90;;;;;;12501578;28;20083;-37
2022/04/27 20:30:04;;;;;;;10.35;5.88;;;10.80;99.90;;;;;;12498576;28;20049;-38
2022/04/27 20:36:06;;;;;;;12.65;6.00;;;10.60;99.90;;;;;;12502222;28;20041;-37
2022/04/27 20:42:09;;;;;;;10.63;6.03;;;10.50;99.90;;;;;;12504907;28;20552;-37
2022/04/27 20:48:15;;;;;;;11.23;6.63;;;10.50;99.90;;;;;;12500269;28;20049;-39
2022/04/27 20:54:17;;;;;;;8.70;5.60;;;10.40;99.90;;;;;;12500168;28;20052;-38
2022/04/27 21:00:19;;;;;;;9.57;5.70;;;10.30;99.90;;;;;;12488338;28;20053;-37
2022/04/27 21:06:24;;;;;;;7.93;5.73;;;10.20;99.90;;;;;;12498177;28;20748;-37
2022/04/27 21:12:27;;;;;;;9.20;5.67;;;10.30;99.90;;;;;;12504322;28;20052;-38
2022/04/27 21:18:30;;;;;;;8.63;6.22;;;10.10;99.90;;;;;;12497859;28;20053;-37
2022/04/27 21:24:32;;;;;;;10.00;6.25;;;10.00;99.90;;;;;;12509555;28;20090;-37
2022/04/27 21:30:39;;;;;;;10.90;6.07;;;10.00;99.90;;;;;;12504032;28;20073;-38
2022/04/27 21:36:43;;;;;;;10.57;6.15;;;9.90;99.90;;;;;;12497885;28;20417;-38
2022/04/27 21:42:46;;;;;;;11.88;6.03;;;9.70;99.90;;;;;;12502656;28;20057;-37
2022/04/27 21:48:48;;;;;;;9.70;5.85;;;9.50;99.90;;;;;;12500046;28;20143;-39
2022/04/27 21:54:50;;;;;;;13.43;6.10;;;9.50;99.90;;;;;;12496758;28;20081;-39
2022/04/27 22:01:06;;;;;;;9.10;5.97;;;9.50;99.90;;;;;;12497052;28;20053;-38
2022/04/27 22:07:09;;;;;;;10.10;6.00;;;9.40;99.90;;;;;;12493660;28;20061;-37
2022/04/27 22:13:12;;;;;;;8.68;5.75;;;9.30;99.90;;;;;;12494591;28;20045;-38
2022/04/27 22:19:15;;;;;;;8.52;6.78;;;9.30;99.90;;;;;;12498444;28;20524;-38
2022/04/27 22:25:19;;;;;;;9.32;5.85;;;9.30;99.90;;;;;;12497607;28;20103;-37
2022/04/27 22:31:22;;;;;;;13.02;5.90;;;9.20;99.90;;;;;;12493374;28;20130;-37
2022/04/27 22:37:24;;;;;;;10.63;6.30;;;9.00;99.90;;;;;;12495615;28;20049;-39
2022/04/27 22:43:27;;;;;;;9.63;5.63;;;8.80;99.90;;;;;;12494922;28;20072;-37
2022/04/27 22:49:29;;;;;;;9.25;5.43;;;8.90;99.90;;;;;;12495263;28;20131;-37
2022/04/27 22:55:31;;;;;;;8.85;5.50;;;8.90;99.90;;;;;;12495047;28;20071;-37
2022/04/27 23:01:33;;;;;;;9.35;5.50;;;8.90;99.90;;;;;;12494517;28;20592;-37
2022/04/27 23:13:59;;;;;;;10.73;5.30;;;8.80;99.90;;;;;;12496354;28;20082;-38
2022/04/27 23:20:02;;;;;;;12.70;5.47;;;8.80;99.90;;;;;;12498006;28;20063;-37
2022/04/27 23:26:05;;;;;;;8.85;5.68;;;8.80;99.90;;;;;;12497110;28;20119;-38
2022/04/27 23:32:07;;;;;;;10.48;6.47;;;8.80;99.90;;;;;;12495709;28;20053;-38
2022/04/27 23:38:09;;;;;;;9.98;5.20;;;8.60;99.90;;;;;;12497099;28;20095;-38
2022/04/27 23:44:12;;;;;;;9.48;5.32;;;8.60;99.90;;;;;;12500736;28;20052;-37
2022/04/27 23:50:14;;;;;;;11.05;6.38;;;8.60;99.90;;;;;;12504780;28;20470;-38
2022/04/27 23:56:16;;;;;;;12.65;6.40;;;8.40;99.90;;;;;;12502555;28;20183;-37
